sensor_id;sensor_type;location;lat;lon;timestamp;P1;durP1;ratioP1;P2;durP2;ratioP2
23370;SDS011;11858;51.056;3.712;2023-10-13T00:02:10;1.05;;;1.05;;
23370;SDS011;11858;51.056;3.712;2023-10-13T00:04:36;0.50;;;0.50;;
23370;SDS011;11858;51.056;3.712;2023-10-13T00:07:02;5.60;;;1.95;;
23370;SDS011;11858;51.056;3.712;2023-10-13T00:09:29;9.40;;;3.00;;
23370;SDS011;11858;51.056;3.712;2023-10-13T00:12:01;0.50;;;0.50;;
23370;SDS011;11858;51.056;3.712;2023-10-13T00:14:28;5.30;;;2.28;;
23370;SDS011;11858;51.056;3.712;2023-10-13T00:16:59;5.43;;;1.60;;
23370;SDS011;11858;51.056;3.712;2023-10-13T00:19:54;4.72;;;2.08;;
23370;SDS011;11858;51.056;3.712;2023-10-13T00:22:20;5.43;;;2.28;;
23370;SDS011;11858;51.056;3.712;2023-10-13T00:24:47;6.97;;;1.48;;
23370;SDS011;11858;51.056;3.712;2023-10-13T00:27:20;9.02;;;2.38;;
23370;SDS011;11858;51.056;3.712;2023-10-13T00:32:42;8.68;;;2.92;;
23370;SDS011;11858;51.056;3.712;2023-10-13T00:35:10;0.50;;;0.50;;
23370;SDS011;11858;51.056;3.712;2023-10-13T00:37:38;3.75;;;2.17;;
23370;SDS011;11858;51.056;3.712;2023-10-13T00:40:10;3.03;;;1.67;;
23370;SDS011;11858;51.056;3.712;2023-10-13T00:43:00;7.70;;;2.65;;
23370;SDS011;11858;51.056;3.712;2023-10-13T00:45:45;4.57;;;1.23;;
23370;SDS011;11858;51.056;3.712;2023-10-13T00:48:38;0.43;;;0.43;;
23370;SDS011;11858;51.056;3.712;2023-10-13T00:51:12;3.13;;;1.40;;
23370;SDS011;11858;51.056;3.712;2023-10-13T00:53:57;8.45;;;2.55;;
23370;SDS011;11858;51.056;3.712;2023-10-13T00:56:24;3.83;;;1.48;;
23370;SDS011;11858;51.056;3.712;2023-10-13T00:58:58;1.10;;;0.90;;
23370;SDS011;11858;51.056;3.712;2023-10-13T01:01:27;2.58;;;1.63;;
23370;SDS011;11858;51.056;3.712;2023-10-13T01:03:55;9.63;;;2.65;;
23370;SDS011;11858;51.056;3.712;2023-10-13T01:06:30;0.77;;;0.52;;
23370;SDS011;11858;51.056;3.712;2023-10-13T01:09:00;4.95;;;1.70;;
23370;SDS011;11858;51.056;3.712;2023-10-13T01:11:49;4.00;;;2.40;;
23370;SDS011;11858;51.056;3.712;2023-10-13T01:14:19;0.40;;;0.40;;
23370;SDS011;11858;51.056;3.712;2023-10-13T01:16:46;1.55;;;1.30;;
23370;SDS011;11858;51.056;3.712;2023-10-13T01:19:13;0.47;;;0.47;;
23370;SDS011;11858;51.056;3.712;2023-10-13T01:21:43;6.78;;;2.00;;
23370;SDS011;11858;51.056;3.712;2023-10-13T01:24:12;2.58;;;1.15;;
23370;SDS011;11858;51.056;3.712;2023-10-13T01:26:43;0.93;;;0.70;;
23370;SDS011;11858;51.056;3.712;2023-10-13T01:29:09;8.73;;;2.65;;
23370;SDS011;11858;51.056;3.712;2023-10-13T01:31:39;1.15;;;1.05;;
23370;SDS011;11858;51.056;3.712;2023-10-13T01:34:11;2.40;;;1.35;;
23370;SDS011;11858;51.056;3.712;2023-10-13T01:36:38;9.40;;;2.75;;
23370;SDS011;11858;51.056;3.712;2023-10-13T01:39:05;0.95;;;0.95;;
23370;SDS011;11858;51.056;3.712;2023-10-13T01:41:32;1.48;;;0.88;;
23370;SDS011;11858;51.056;3.712;2023-10-13T01:44:02;2.65;;;0.77;;
23370;SDS011;11858;51.056;3.712;2023-10-13T01:46:29;2.53;;;1.90;;
23370;SDS011;11858;51.056;3.712;2023-10-13T01:48:55;0.52;;;0.52;;
23370;SDS011;11858;51.056;3.712;2023-10-13T01:51:22;3.25;;;1.70;;
23370;SDS011;11858;51.056;3.712;2023-10-13T01:53:48;9.68;;;2.85;;
23370;SDS011;11858;51.056;3.712;2023-10-13T01:56:21;0.30;;;0.30;;
23370;SDS011;11858;51.056;3.712;2023-10-13T01:58:48;0.82;;;0.65;;
23370;SDS011;11858;51.056;3.712;2023-10-13T02:01:14;0.43;;;0.43;;
23370;SDS011;11858;51.056;3.712;2023-10-13T02:03:51;1.13;;;0.93;;
23370;SDS011;11858;51.056;3.712;2023-10-13T02:06:26;0.45;;;0.45;;
23370;SDS011;11858;51.056;3.712;2023-10-13T02:08:57;0.32;;;0.32;;
23370;SDS011;11858;51.056;3.712;2023-10-13T02:11:35;9.77;;;3.03;;
23370;SDS011;11858;51.056;3.712;2023-10-13T02:14:18;0.90;;;0.75;;
23370;SDS011;11858;51.056;3.712;2023-10-13T02:16:51;6.63;;;2.60;;
23370;SDS011;11858;51.056;3.712;2023-10-13T02:19:32;15.00;;;4.32;;
23370;SDS011;11858;51.056;3.712;2023-10-13T02:21:57;9.73;;;3.40;;
23370;SDS011;11858;51.056;3.712;2023-10-13T02:24:27;9.40;;;3.67;;
23370;SDS011;11858;51.056;3.712;2023-10-13T02:26:55;8.60;;;2.35;;
23370;SDS011;11858;51.056;3.712;2023-10-13T02:29:28;8.70;;;4.68;;
23370;SDS011;11858;51.056;3.712;2023-10-13T02:31:54;0.20;;;0.20;;
23370;SDS011;11858;51.056;3.712;2023-10-13T02:34:20;0.93;;;0.90;;
23370;SDS011;11858;51.056;3.712;2023-10-13T02:36:48;9.63;;;3.05;;
23370;SDS011;11858;51.056;3.712;2023-10-13T02:39:17;6.25;;;3.47;;
23370;SDS011;11858;51.056;3.712;2023-10-13T02:41:50;15.40;;;5.68;;
23370;SDS011;11858;51.056;3.712;2023-10-13T02:44:16;35.83;;;14.25;;
23370;SDS011;11858;51.056;3.712;2023-10-13T02:46:56;6.15;;;4.05;;
23370;SDS011;11858;51.056;3.712;2023-10-13T02:49:24;22.30;;;9.13;;
23370;SDS011;11858;51.056;3.712;2023-10-13T02:51:51;13.30;;;5.78;;
23370;SDS011;11858;51.056;3.712;2023-10-13T02:54:27;31.58;;;14.57;;
23370;SDS011;11858;51.056;3.712;2023-10-13T02:56:56;41.85;;;12.07;;
23370;SDS011;11858;51.056;3.712;2023-10-13T02:59:25;19.92;;;8.52;;
23370;SDS011;11858;51.056;3.712;2023-10-13T03:02:11;0.40;;;0.40;;
23370;SDS011;11858;51.056;3.712;2023-10-13T03:04:55;20.17;;;9.20;;
23370;SDS011;11858;51.056;3.712;2023-10-13T03:07:25;36.83;;;16.77;;
23370;SDS011;11858;51.056;3.712;2023-10-13T03:09:54;18.27;;;8.50;;
23370;SDS011;11858;51.056;3.712;2023-10-13T03:12:23;8.98;;;4.97;;
23370;SDS011;11858;51.056;3.712;2023-10-13T03:14:50;7.88;;;4.72;;
23370;SDS011;11858;51.056;3.712;2023-10-13T03:17:35;49.38;;;21.23;;
23370;SDS011;11858;51.056;3.712;2023-10-13T03:20:02;14.35;;;6.03;;
23370;SDS011;11858;51.056;3.712;2023-10-13T03:22:30;3.50;;;1.58;;
23370;SDS011;11858;51.056;3.712;2023-10-13T03:24:57;3.70;;;2.50;;
23370;SDS011;11858;51.056;3.712;2023-10-13T03:27:34;21.60;;;8.20;;
23370;SDS011;11858;51.056;3.712;2023-10-13T03:30:18;1.10;;;1.05;;
23370;SDS011;11858;51.056;3.712;2023-10-13T03:32:46;6.75;;;3.60;;
23370;SDS011;11858;51.056;3.712;2023-10-13T03:35:14;15.20;;;7.13;;
23370;SDS011;11858;51.056;3.712;2023-10-13T03:37:49;4.38;;;2.72;;
23370;SDS011;11858;51.056;3.712;2023-10-13T03:40:18;11.93;;;5.93;;
23370;SDS011;11858;51.056;3.712;2023-10-13T03:42:44;0.30;;;0.30;;
23370;SDS011;11858;51.056;3.712;2023-10-13T03:45:33;22.40;;;8.50;;
23370;SDS011;11858;51.056;3.712;2023-10-13T03:48:07;19.08;;;8.48;;
23370;SDS011;11858;51.056;3.712;2023-10-13T03:50:37;22.63;;;9.40;;
23370;SDS011;11858;51.056;3.712;2023-10-13T03:53:23;12.68;;;5.03;;
23370;SDS011;11858;51.056;3.712;2023-10-13T03:55:50;4.28;;;2.70;;
23370;SDS011;11858;51.056;3.712;2023-10-13T03:58:33;15.98;;;7.78;;
23370;SDS011;11858;51.056;3.712;2023-10-13T04:01:00;25.67;;;9.52;;
23370;SDS011;11858;51.056;3.712;2023-10-13T04:03:26;9.63;;;4.63;;
23370;SDS011;11858;51.056;3.712;2023-10-13T04:06:07;5.68;;;2.80;;
23370;SDS011;11858;51.056;3.712;2023-10-13T04:08:41;10.10;;;5.05;;
23370;SDS011;11858;51.056;3.712;2023-10-13T04:11:13;11.73;;;4.28;;
23370;SDS011;11858;51.056;3.712;2023-10-13T04:13:57;11.35;;;3.53;;
23370;SDS011;11858;51.056;3.712;2023-10-13T04:16:41;0.20;;;0.20;;
23370;SDS011;11858;51.056;3.712;2023-10-13T04:19:18;10.15;;;3.63;;
23370;SDS011;11858;51.056;3.712;2023-10-13T04:21:51;18.35;;;7.35;;
23370;SDS011;11858;51.056;3.712;2023-10-13T04:24:39;9.75;;;2.33;;
23370;SDS011;11858;51.056;3.712;2023-10-13T04:27:24;17.55;;;7.38;;
23370;SDS011;11858;51.056;3.712;2023-10-13T04:30:09;22.08;;;7.53;;
23370;SDS011;11858;51.056;3.712;2023-10-13T04:32:35;8.48;;;4.47;;
23370;SDS011;11858;51.056;3.712;2023-10-13T04:35:06;1.13;;;0.85;;
23370;SDS011;11858;51.056;3.712;2023-10-13T04:37:43;6.30;;;2.80;;
23370;SDS011;11858;51.056;3.712;2023-10-13T04:40:17;7.18;;;3.90;;
23370;SDS011;11858;51.056;3.712;2023-10-13T04:42:44;23.45;;;9.00;;
23370;SDS011;11858;51.056;3.712;2023-10-13T04:48:13;15.10;;;6.60;;
23370;SDS011;11858;51.056;3.712;2023-10-13T04:50:48;8.02;;;0.82;;
23370;SDS011;11858;51.056;3.712;2023-10-13T04:53:24;9.20;;;3.97;;
23370;SDS011;11858;51.056;3.712;2023-10-13T04:55:59;4.20;;;1.50;;
23370;SDS011;11858;51.056;3.712;2023-10-13T04:58:29;6.88;;;3.17;;
23370;SDS011;11858;51.056;3.712;2023-10-13T05:00:58;9.65;;;4.75;;
23370;SDS011;11858;51.056;3.712;2023-10-13T05:03:43;6.07;;;2.97;;
23370;SDS011;11858;51.056;3.712;2023-10-13T05:06:28;7.80;;;3.95;;
23370;SDS011;11858;51.056;3.712;2023-10-13T05:09:09;9.50;;;4.22;;
23370;SDS011;11858;51.056;3.712;2023-10-13T05:11:56;10.95;;;2.92;;
23370;SDS011;11858;51.056;3.712;2023-10-13T05:14:40;9.38;;;3.13;;
23370;SDS011;11858;51.056;3.712;2023-10-13T05:17:25;12.63;;;5.88;;
23370;SDS011;11858;51.056;3.712;2023-10-13T05:20:09;19.52;;;6.15;;
23370;SDS011;11858;51.056;3.712;2023-10-13T05:22:53;27.95;;;10.00;;
23370;SDS011;11858;51.056;3.712;2023-10-13T05:25:37;2.88;;;2.25;;
23370;SDS011;11858;51.056;3.712;2023-10-13T05:28:22;12.57;;;5.10;;
23370;SDS011;11858;51.056;3.712;2023-10-13T05:31:06;23.35;;;8.35;;
23370;SDS011;11858;51.056;3.712;2023-10-13T05:33:51;17.27;;;5.63;;
23370;SDS011;11858;51.056;3.712;2023-10-13T05:36:43;9.80;;;3.05;;
23370;SDS011;11858;51.056;3.712;2023-10-13T05:39:27;11.07;;;4.25;;
23370;SDS011;11858;51.056;3.712;2023-10-13T05:42:11;12.00;;;4.97;;
23370;SDS011;11858;51.056;3.712;2023-10-13T05:44:55;22.17;;;7.70;;
23370;SDS011;11858;51.056;3.712;2023-10-13T05:47:41;9.63;;;4.03;;
23370;SDS011;11858;51.056;3.712;2023-10-13T05:50:07;6.22;;;3.30;;
23370;SDS011;11858;51.056;3.712;2023-10-13T05:52:39;28.58;;;10.43;;
23370;SDS011;11858;51.056;3.712;2023-10-13T05:55:20;1.70;;;1.05;;
23370;SDS011;11858;51.056;3.712;2023-10-13T05:58:05;22.70;;;8.85;;
23370;SDS011;11858;51.056;3.712;2023-10-13T06:00:50;2.55;;;1.83;;
23370;SDS011;11858;51.056;3.712;2023-10-13T06:03:33;30.17;;;10.32;;
23370;SDS011;11858;51.056;3.712;2023-10-13T06:06:18;21.27;;;7.07;;
23370;SDS011;11858;51.056;3.712;2023-10-13T06:09:02;8.30;;;4.57;;
23370;SDS011;11858;51.056;3.712;2023-10-13T06:11:47;10.32;;;4.72;;
23370;SDS011;11858;51.056;3.712;2023-10-13T06:14:31;21.30;;;5.53;;
23370;SDS011;11858;51.056;3.712;2023-10-13T06:17:15;19.08;;;5.40;;
23370;SDS011;11858;51.056;3.712;2023-10-13T06:20:09;19.70;;;5.18;;
23370;SDS011;11858;51.056;3.712;2023-10-13T06:22:53;21.27;;;5.88;;
23370;SDS011;11858;51.056;3.712;2023-10-13T06:25:38;7.68;;;2.40;;
23370;SDS011;11858;51.056;3.712;2023-10-13T06:28:22;18.10;;;5.00;;
23370;SDS011;11858;51.056;3.712;2023-10-13T06:31:06;9.20;;;4.28;;
23370;SDS011;11858;51.056;3.712;2023-10-13T06:33:37;9.52;;;5.57;;
23370;SDS011;11858;51.056;3.712;2023-10-13T06:36:09;17.52;;;4.95;;
23370;SDS011;11858;51.056;3.712;2023-10-13T06:38:35;13.02;;;5.75;;
23370;SDS011;11858;51.056;3.712;2023-10-13T06:41:05;20.45;;;6.13;;
23370;SDS011;11858;51.056;3.712;2023-10-13T06:43:32;12.25;;;4.60;;
23370;SDS011;11858;51.056;3.712;2023-10-13T06:46:04;15.50;;;6.05;;
23370;SDS011;11858;51.056;3.712;2023-10-13T06:48:39;16.08;;;4.05;;
23370;SDS011;11858;51.056;3.712;2023-10-13T06:51:06;2.35;;;1.55;;
23370;SDS011;11858;51.056;3.712;2023-10-13T06:53:55;7.35;;;3.90;;
23370;SDS011;11858;51.056;3.712;2023-10-13T06:56:21;15.07;;;5.40;;
23370;SDS011;11858;51.056;3.712;2023-10-13T06:58:51;5.10;;;2.00;;
23370;SDS011;11858;51.056;3.712;2023-10-13T07:01:24;21.75;;;7.25;;
23370;SDS011;11858;51.056;3.712;2023-10-13T07:03:52;7.05;;;3.35;;
23370;SDS011;11858;51.056;3.712;2023-10-13T07:06:19;18.85;;;6.10;;
23370;SDS011;11858;51.056;3.712;2023-10-13T07:08:46;3.72;;;2.08;;
23370;SDS011;11858;51.056;3.712;2023-10-13T07:11:17;17.05;;;4.57;;
23370;SDS011;11858;51.056;3.712;2023-10-13T07:13:58;8.57;;;3.67;;
23370;SDS011;11858;51.056;3.712;2023-10-13T07:16:41;21.65;;;4.95;;
23370;SDS011;11858;51.056;3.712;2023-10-13T07:19:12;18.08;;;6.20;;
23370;SDS011;11858;51.056;3.712;2023-10-13T07:21:42;5.13;;;3.20;;
23370;SDS011;11858;51.056;3.712;2023-10-13T07:24:11;7.60;;;3.63;;
23370;SDS011;11858;51.056;3.712;2023-10-13T07:26:38;11.95;;;3.50;;
23370;SDS011;11858;51.056;3.712;2023-10-13T07:29:22;22.05;;;4.93;;
23370;SDS011;11858;51.056;3.712;2023-10-13T07:31:50;15.32;;;4.32;;
23370;SDS011;11858;51.056;3.712;2023-10-13T07:34:16;21.80;;;5.68;;
23370;SDS011;11858;51.056;3.712;2023-10-13T07:36:54;8.20;;;3.10;;
23370;SDS011;11858;51.056;3.712;2023-10-13T07:39:30;5.43;;;3.17;;
23370;SDS011;11858;51.056;3.712;2023-10-13T07:41:59;17.02;;;5.80;;
23370;SDS011;11858;51.056;3.712;2023-10-13T07:44:33;19.85;;;6.40;;
23370;SDS011;11858;51.056;3.712;2023-10-13T07:47:07;16.45;;;4.65;;
23370;SDS011;11858;51.056;3.712;2023-10-13T07:49:43;8.95;;;3.47;;
23370;SDS011;11858;51.056;3.712;2023-10-13T07:52:09;16.83;;;4.90;;
23370;SDS011;11858;51.056;3.712;2023-10-13T07:54:45;21.90;;;6.70;;
23370;SDS011;11858;51.056;3.712;2023-10-13T07:57:20;7.75;;;3.90;;
23370;SDS011;11858;51.056;3.712;2023-10-13T07:59:53;10.77;;;3.22;;
23370;SDS011;11858;51.056;3.712;2023-10-13T08:02:31;8.55;;;2.75;;
23370;SDS011;11858;51.056;3.712;2023-10-13T08:05:15;8.63;;;4.07;;
23370;SDS011;11858;51.056;3.712;2023-10-13T08:07:54;21.65;;;5.53;;
23370;SDS011;11858;51.056;3.712;2023-10-13T08:10:21;9.13;;;4.18;;
23370;SDS011;11858;51.056;3.712;2023-10-13T08:12:54;16.60;;;6.20;;
23370;SDS011;11858;51.056;3.712;2023-10-13T08:15:23;11.70;;;4.38;;
23370;SDS011;11858;51.056;3.712;2023-10-13T08:17:57;16.30;;;5.63;;
23370;SDS011;11858;51.056;3.712;2023-10-13T08:20:42;3.22;;;2.92;;
23370;SDS011;11858;51.056;3.712;2023-10-13T08:23:09;27.15;;;7.15;;
23370;SDS011;11858;51.056;3.712;2023-10-13T08:25:55;21.50;;;6.55;;
23370;SDS011;11858;51.056;3.712;2023-10-13T08:28:39;23.83;;;7.47;;
23370;SDS011;11858;51.056;3.712;2023-10-13T08:31:19;11.13;;;4.72;;
23370;SDS011;11858;51.056;3.712;2023-10-13T08:33:50;12.15;;;6.53;;
23370;SDS011;11858;51.056;3.712;2023-10-13T08:36:23;8.15;;;4.75;;
23370;SDS011;11858;51.056;3.712;2023-10-13T08:38:53;23.23;;;5.78;;
23370;SDS011;11858;51.056;3.712;2023-10-13T08:41:21;14.93;;;7.45;;
23370;SDS011;11858;51.056;3.712;2023-10-13T08:43:51;26.67;;;6.90;;
23370;SDS011;11858;51.056;3.712;2023-10-13T08:46:18;16.73;;;5.63;;
23370;SDS011;11858;51.056;3.712;2023-10-13T08:48:57;7.35;;;3.90;;
23370;SDS011;11858;51.056;3.712;2023-10-13T08:51:39;2.58;;;2.47;;
23370;SDS011;11858;51.056;3.712;2023-10-13T08:54:28;4.18;;;3.30;;
23370;SDS011;11858;51.056;3.712;2023-10-13T08:57:10;8.52;;;4.35;;
23370;SDS011;11858;51.056;3.712;2023-10-13T08:59:58;8.77;;;5.75;;
23370;SDS011;11858;51.056;3.712;2023-10-13T09:02:43;14.07;;;5.78;;
23370;SDS011;11858;51.056;3.712;2023-10-13T09:05:24;16.30;;;5.00;;
23370;SDS011;11858;51.056;3.712;2023-10-13T09:08:26;10.25;;;5.40;;
23370;SDS011;11858;51.056;3.712;2023-10-13T09:11:01;17.20;;;7.57;;
23370;SDS011;11858;51.056;3.712;2023-10-13T09:13:37;23.90;;;7.13;;
23370;SDS011;11858;51.056;3.712;2023-10-13T09:16:12;10.82;;;6.75;;
23370;SDS011;11858;51.056;3.712;2023-10-13T09:19:02;15.98;;;7.45;;
23370;SDS011;11858;51.056;3.712;2023-10-13T09:21:38;8.27;;;4.68;;
23370;SDS011;11858;51.056;3.712;2023-10-13T09:24:09;25.75;;;6.70;;
23370;SDS011;11858;51.056;3.712;2023-10-13T09:26:46;20.80;;;9.23;;
23370;SDS011;11858;51.056;3.712;2023-10-13T09:29:15;16.40;;;7.15;;
23370;SDS011;11858;51.056;3.712;2023-10-13T09:31:43;12.45;;;7.53;;
23370;SDS011;11858;51.056;3.712;2023-10-13T09:34:10;24.52;;;8.70;;
23370;SDS011;11858;51.056;3.712;2023-10-13T09:36:45;9.82;;;6.40;;
23370;SDS011;11858;51.056;3.712;2023-10-13T09:39:12;24.05;;;7.07;;
23370;SDS011;11858;51.056;3.712;2023-10-13T09:41:54;14.05;;;6.55;;
23370;SDS011;11858;51.056;3.712;2023-10-13T09:44:21;18.52;;;8.52;;
23370;SDS011;11858;51.056;3.712;2023-10-13T09:46:47;25.75;;;9.25;;
23370;SDS011;11858;51.056;3.712;2023-10-13T09:49:14;8.68;;;5.93;;
23370;SDS011;11858;51.056;3.712;2023-10-13T09:52:09;19.45;;;9.70;;
23370;SDS011;11858;51.056;3.712;2023-10-13T09:54:44;8.35;;;7.05;;
23370;SDS011;11858;51.056;3.712;2023-10-13T09:57:34;30.17;;;9.77;;
23370;SDS011;11858;51.056;3.712;2023-10-13T10:00:12;23.70;;;7.70;;
23370;SDS011;11858;51.056;3.712;2023-10-13T10:03:02;12.23;;;6.47;;
23370;SDS011;11858;51.056;3.712;2023-10-13T10:05:58;15.10;;;5.97;;
23370;SDS011;11858;51.056;3.712;2023-10-13T10:09:03;17.83;;;8.05;;
23370;SDS011;11858;51.056;3.712;2023-10-13T10:11:55;11.45;;;5.82;;
23370;SDS011;11858;51.056;3.712;2023-10-13T10:17:38;18.75;;;6.85;;
23370;SDS011;11858;51.056;3.712;2023-10-13T10:20:07;10.23;;;6.25;;
23370;SDS011;11858;51.056;3.712;2023-10-13T10:22:40;9.23;;;6.00;;
23370;SDS011;11858;51.056;3.712;2023-10-13T10:25:13;7.57;;;4.43;;
23370;SDS011;11858;51.056;3.712;2023-10-13T10:30:24;5.65;;;5.25;;
23370;SDS011;11858;51.056;3.712;2023-10-13T10:32:54;14.15;;;7.82;;
23370;SDS011;11858;51.056;3.712;2023-10-13T10:35:26;7.20;;;6.53;;
23370;SDS011;11858;51.056;3.712;2023-10-13T10:38:19;16.83;;;7.35;;
23370;SDS011;11858;51.056;3.712;2023-10-13T10:41:10;18.67;;;8.43;;
23370;SDS011;11858;51.056;3.712;2023-10-13T10:43:39;19.85;;;8.82;;
23370;SDS011;11858;51.056;3.712;2023-10-13T10:46:08;9.27;;;7.60;;
23370;SDS011;11858;51.056;3.712;2023-10-13T10:48:37;9.00;;;6.53;;
23370;SDS011;11858;51.056;3.712;2023-10-13T10:51:08;19.20;;;9.38;;
23370;SDS011;11858;51.056;3.712;2023-10-13T10:53:41;16.83;;;11.65;;
23370;SDS011;11858;51.056;3.712;2023-10-13T10:56:10;12.23;;;9.27;;
23370;SDS011;11858;51.056;3.712;2023-10-13T10:59:04;14.82;;;10.93;;
23370;SDS011;11858;51.056;3.712;2023-10-13T11:01:32;8.15;;;7.50;;
23370;SDS011;11858;51.056;3.712;2023-10-13T11:04:07;15.60;;;11.38;;
23370;SDS011;11858;51.056;3.712;2023-10-13T11:06:36;9.45;;;7.57;;
23370;SDS011;11858;51.056;3.712;2023-10-13T11:09:11;16.33;;;10.00;;
23370;SDS011;11858;51.056;3.712;2023-10-13T11:11:52;22.17;;;12.10;;
23370;SDS011;11858;51.056;3.712;2023-10-13T11:14:19;12.90;;;10.95;;
23370;SDS011;11858;51.056;3.712;2023-10-13T11:16:53;10.47;;;9.50;;
23370;SDS011;11858;51.056;3.712;2023-10-13T11:21:50;26.70;;;13.15;;
23370;SDS011;11858;51.056;3.712;2023-10-13T11:24:18;16.50;;;10.30;;
23370;SDS011;11858;51.056;3.712;2023-10-13T11:26:46;27.60;;;15.15;;
23370;SDS011;11858;51.056;3.712;2023-10-13T11:29:17;13.85;;;11.85;;
23370;SDS011;11858;51.056;3.712;2023-10-13T11:31:47;11.98;;;10.85;;
23370;SDS011;11858;51.056;3.712;2023-10-13T11:34:23;11.82;;;10.77;;
23370;SDS011;11858;51.056;3.712;2023-10-13T11:36:50;28.10;;;12.45;;
23370;SDS011;11858;51.056;3.712;2023-10-13T11:39:16;12.32;;;11.15;;
23370;SDS011;11858;51.056;3.712;2023-10-13T11:41:50;14.02;;;12.77;;
23370;SDS011;11858;51.056;3.712;2023-10-13T11:44:19;19.63;;;12.70;;
23370;SDS011;11858;51.056;3.712;2023-10-13T11:46:45;15.65;;;12.25;;
23370;SDS011;11858;51.056;3.712;2023-10-13T11:49:13;13.07;;;11.73;;
23370;SDS011;11858;51.056;3.712;2023-10-13T11:51:43;12.55;;;11.48;;
23370;SDS011;11858;51.056;3.712;2023-10-13T11:54:22;12.35;;;10.73;;
23370;SDS011;11858;51.056;3.712;2023-10-13T11:56:48;22.52;;;13.00;;
23370;SDS011;11858;51.056;3.712;2023-10-13T11:59:15;17.38;;;12.00;;
23370;SDS011;11858;51.056;3.712;2023-10-13T12:01:44;19.13;;;14.13;;
23370;SDS011;11858;51.056;3.712;2023-10-13T12:04:29;28.58;;;15.70;;
23370;SDS011;11858;51.056;3.712;2023-10-13T12:06:57;30.42;;;15.95;;
23370;SDS011;11858;51.056;3.712;2023-10-13T12:09:42;13.65;;;10.75;;
23370;SDS011;11858;51.056;3.712;2023-10-13T12:12:20;17.75;;;14.00;;
23370;SDS011;11858;51.056;3.712;2023-10-13T12:14:47;15.05;;;13.85;;
23370;SDS011;11858;51.056;3.712;2023-10-13T12:17:22;14.23;;;13.15;;
23370;SDS011;11858;51.056;3.712;2023-10-13T12:19:56;18.73;;;17.02;;
23370;SDS011;11858;51.056;3.712;2023-10-13T12:22:22;15.70;;;14.60;;
23370;SDS011;11858;51.056;3.712;2023-10-13T12:25:00;16.50;;;15.15;;
23370;SDS011;11858;51.056;3.712;2023-10-13T12:27:29;24.15;;;16.17;;
23370;SDS011;11858;51.056;3.712;2023-10-13T12:30:10;18.92;;;17.00;;
23370;SDS011;11858;51.056;3.712;2023-10-13T12:32:39;19.08;;;17.45;;
23370;SDS011;11858;51.056;3.712;2023-10-13T12:35:09;16.73;;;15.63;;
23370;SDS011;11858;51.056;3.712;2023-10-13T12:37:35;16.83;;;15.40;;
23370;SDS011;11858;51.056;3.712;2023-10-13T12:40:22;18.25;;;16.33;;
23370;SDS011;11858;51.056;3.712;2023-10-13T12:43:06;16.80;;;15.57;;
23370;SDS011;11858;51.056;3.712;2023-10-13T12:45:50;16.23;;;15.13;;
23370;SDS011;11858;51.056;3.712;2023-10-13T12:48:36;14.73;;;13.73;;
23370;SDS011;11858;51.056;3.712;2023-10-13T12:51:21;20.42;;;15.32;;
23370;SDS011;11858;51.056;3.712;2023-10-13T12:53:53;17.25;;;14.85;;
23370;SDS011;11858;51.056;3.712;2023-10-13T12:56:20;22.48;;;14.30;;
23370;SDS011;11858;51.056;3.712;2023-10-13T12:58:53;20.77;;;14.10;;
23370;SDS011;11858;51.056;3.712;2023-10-13T13:01:19;16.95;;;12.70;;
23370;SDS011;11858;51.056;3.712;2023-10-13T13:03:49;19.33;;;12.65;;
23370;SDS011;11858;51.056;3.712;2023-10-13T13:06:20;10.57;;;9.85;;
23370;SDS011;11858;51.056;3.712;2023-10-13T13:11:17;18.20;;;12.80;;
23370;SDS011;11858;51.056;3.712;2023-10-13T13:13:42;12.63;;;11.35;;
23370;SDS011;11858;51.056;3.712;2023-10-13T13:16:11;13.00;;;11.93;;
23370;SDS011;11858;51.056;3.712;2023-10-13T13:18:39;14.23;;;11.95;;
23370;SDS011;11858;51.056;3.712;2023-10-13T13:21:05;11.40;;;10.43;;
23370;SDS011;11858;51.056;3.712;2023-10-13T13:23:32;18.33;;;13.13;;
23370;SDS011;11858;51.056;3.712;2023-10-13T13:25:59;11.75;;;11.05;;
23370;SDS011;11858;51.056;3.712;2023-10-13T13:28:26;13.00;;;11.88;;
23370;SDS011;11858;51.056;3.712;2023-10-13T13:30:54;12.88;;;11.65;;
23370;SDS011;11858;51.056;3.712;2023-10-13T13:33:20;10.50;;;9.77;;
23370;SDS011;11858;51.056;3.712;2023-10-13T13:38:20;15.63;;;13.88;;
23370;SDS011;11858;51.056;3.712;2023-10-13T13:40:52;11.77;;;10.80;;
23370;SDS011;11858;51.056;3.712;2023-10-13T13:43:21;9.45;;;8.95;;
23370;SDS011;11858;51.056;3.712;2023-10-13T13:48:28;11.70;;;10.63;;
23370;SDS011;11858;51.056;3.712;2023-10-13T13:50:54;11.52;;;10.63;;
23370;SDS011;11858;51.056;3.712;2023-10-13T13:53:30;10.00;;;9.40;;
23370;SDS011;11858;51.056;3.712;2023-10-13T13:56:02;15.20;;;13.40;;
23370;SDS011;11858;51.056;3.712;2023-10-13T13:58:29;87.15;;;13.40;;
23370;SDS011;11858;51.056;3.712;2023-10-13T14:01:02;26.25;;;14.98;;
23370;SDS011;11858;51.056;3.712;2023-10-13T14:03:50;16.73;;;15.05;;
23370;SDS011;11858;51.056;3.712;2023-10-13T14:06:21;13.65;;;12.63;;
23370;SDS011;11858;51.056;3.712;2023-10-13T14:08:49;21.45;;;15.38;;
23370;SDS011;11858;51.056;3.712;2023-10-13T14:11:29;14.70;;;13.50;;
23370;SDS011;11858;51.056;3.712;2023-10-13T14:14:04;15.50;;;13.82;;
23370;SDS011;11858;51.056;3.712;2023-10-13T14:17:00;15.15;;;13.50;;
23370;SDS011;11858;51.056;3.712;2023-10-13T14:19:33;12.30;;;11.50;;
23370;SDS011;11858;51.056;3.712;2023-10-13T14:22:00;13.50;;;12.60;;
23370;SDS011;11858;51.056;3.712;2023-10-13T14:24:31;12.85;;;12.07;;
23370;SDS011;11858;51.056;3.712;2023-10-13T14:26:58;18.95;;;14.02;;
23370;SDS011;11858;51.056;3.712;2023-10-13T14:29:36;13.85;;;11.90;;
23370;SDS011;11858;51.056;3.712;2023-10-13T14:32:08;13.45;;;12.32;;
23370;SDS011;11858;51.056;3.712;2023-10-13T14:34:41;14.90;;;13.55;;
23370;SDS011;11858;51.056;3.712;2023-10-13T14:37:08;12.67;;;11.73;;
23370;SDS011;11858;51.056;3.712;2023-10-13T14:39:37;11.85;;;10.65;;
23370;SDS011;11858;51.056;3.712;2023-10-13T14:42:04;11.10;;;10.30;;
23370;SDS011;11858;51.056;3.712;2023-10-13T14:44:33;13.27;;;11.73;;
23370;SDS011;11858;51.056;3.712;2023-10-13T14:46:59;11.57;;;10.43;;
23370;SDS011;11858;51.056;3.712;2023-10-13T14:49:25;12.05;;;11.27;;
23370;SDS011;11858;51.056;3.712;2023-10-13T14:51:51;16.70;;;14.60;;
23370;SDS011;11858;51.056;3.712;2023-10-13T14:54:20;14.88;;;13.30;;
23370;SDS011;11858;51.056;3.712;2023-10-13T14:56:57;14.00;;;11.68;;
23370;SDS011;11858;51.056;3.712;2023-10-13T14:59:27;16.92;;;14.13;;
23370;SDS011;11858;51.056;3.712;2023-10-13T15:01:57;15.10;;;13.52;;
23370;SDS011;11858;51.056;3.712;2023-10-13T15:04:24;12.77;;;11.52;;
23370;SDS011;11858;51.056;3.712;2023-10-13T15:06:50;22.30;;;14.35;;
23370;SDS011;11858;51.056;3.712;2023-10-13T15:09:15;13.88;;;12.68;;
23370;SDS011;11858;51.056;3.712;2023-10-13T15:11:48;13.85;;;11.52;;
23370;SDS011;11858;51.056;3.712;2023-10-13T15:14:17;12.07;;;11.13;;
23370;SDS011;11858;51.056;3.712;2023-10-13T15:16:45;15.90;;;14.07;;
23370;SDS011;11858;51.056;3.712;2023-10-13T15:19:11;16.63;;;13.32;;
23370;SDS011;11858;51.056;3.712;2023-10-13T15:21:37;12.70;;;11.63;;
23370;SDS011;11858;51.056;3.712;2023-10-13T15:24:05;14.38;;;13.27;;
23370;SDS011;11858;51.056;3.712;2023-10-13T15:26:47;17.08;;;13.23;;
23370;SDS011;11858;51.056;3.712;2023-10-13T15:29:16;13.85;;;12.85;;
23370;SDS011;11858;51.056;3.712;2023-10-13T15:31:46;13.73;;;12.68;;
23370;SDS011;11858;51.056;3.712;2023-10-13T15:34:23;17.83;;;15.70;;
23370;SDS011;11858;51.056;3.712;2023-10-13T15:36:51;16.08;;;14.52;;
23370;SDS011;11858;51.056;3.712;2023-10-13T15:39:19;16.00;;;14.32;;